Latest Weather Observations for Port Macquarie Airport

IDN60801

Issued at 6:35 am EST Tuesday 2 September 2014 (issued every 30 minutes, with the page automatically refreshed every 10 minutes)

About weather observations | Map of weather stations | Latest weather observations for NSW | Other Formats
Station Details ID: 060139 Name: PORT MACQUARIE AIRPORT AWS Lat: -31.43 Lon: 152.87 Height: 4.2 m
Data from the previous 72 hours. | See also: Recent months at Port Macquarie Airport
Date/Time
EST
Temp
°C
App
Temp
°C
Dew
Point
Rel
Hum
%
Delta-T
°C
Wind Press
QNH
hPa
Press
MSL
hPa
Rain
since 9 am
mm
Dir
 
Spd
km/h
Gust
km/h
Spd
kts
Gust
kts
02/06:30am 12.3 11.1 11.7 96 0.3 NW 9 11 5 6 1009.6 - 0.0
02/06:00am 12.2 11.4 11.6 96 0.3 NW 7 9 4 5 1009.8 1009.8 0.0
02/05:30am 12.3 11.7 11.7 96 0.3 NNW 6 7 3 4 1009.9 - 0.0
02/05:00am 12.4 11.9 11.9 97 0.3 NW 6 9 3 5 1010.0 1010.0 0.0
02/04:30am 12.2 12.7 11.6 96 0.3 CALM 0 7 0 4 1009.9 - 0.0
02/04:00am 12.5 12.0 11.9 96 0.3 NW 6 9 3 5 1010.2 1010.2 0.0
02/03:30am 12.6 11.5 12.0 96 0.3 NW 9 11 5 6 1010.3 - 0.0
02/03:00am 12.6 12.1 12.1 97 0.3 NNW 6 7 3 4 1010.5 1010.5 0.0
02/02:30am 12.1 11.2 11.5 96 0.3 NNW 7 9 4 5 1011.0 - 0.0
02/02:00am 13.4 14.3 12.8 96 0.3 CALM 0 0 0 0 1011.3 1011.3 0.0
02/01:30am 13.0 12.6 12.5 97 0.3 NW 6 7 3 4 1011.7 - 0.0
02/01:10am 13.5 13.3 12.9 96 0.3 N 6 6 3 3 1012.0 - 0.0
02/01:00am 12.4 12.1 11.5 94 0.5 N 4 7 2 4 1012.2 1012.2 0.0
02/12:51am 12.1 12.5 11.2 94 0.5 CALM 0 0 0 0 1012.3 - 0.0
02/12:30am 13.5 14.4 13.0 97 0.3 CALM 0 0 0 0 1012.6 - 0.0
02/12:07am 13.9 13.8 13.4 97 0.3 WNW 6 7 3 4 1012.8 - 0.0
02/12:00am 14.3 14.4 13.8 97 0.3 WNW 6 7 3 4 1012.8 1012.8 0.0
 
Date/Time
EST
Temp
°C
App
Temp
°C
Dew
Point
Rel
Hum
%
Delta-T
°C
Wind Press
QNH
hPa
Press
MSL
hPa
Rain
since 9 am
mm
Dir
 
Spd
km/h
Gust
km/h
Spd
kts
Gust
kts
01/11:45pm 13.5 13.7 12.9 96 0.3 W 4 6 2 3 1012.9 - 0.0
01/11:44pm 13.4 13.5 12.8 96 0.3 W 4 6 2 3 1012.9 - 0.0
01/11:30pm 13.6 14.5 13.0 96 0.3 CALM 0 0 0 0 1012.8 - 0.0
01/11:05pm 13.8 14.4 13.2 96 0.3 WSW 2 6 1 3 1013.0 - 0.0
01/11:04pm 13.9 14.2 13.3 96 0.3 WSW 4 6 2 3 1013.0 - 0.0
01/11:00pm 14.2 14.5 13.4 95 0.4 WSW 4 6 2 3 1013.1 1013.1 0.0
01/10:50pm 13.8 14.7 12.9 94 0.5 CALM 0 2 0 1 1013.2 - 0.0
01/10:30pm 14.0 13.8 13.1 94 0.5 WSW 6 7 3 4 1013.3 - 0.0
01/10:00pm 14.5 15.2 13.5 94 0.6 WSW 2 6 1 3 1013.3 1013.3 0.0
01/09:30pm 14.7 15.8 13.6 93 0.6 CALM 0 0 0 0 1013.6 - 0.0
01/09:14pm 15.0 16.2 13.9 93 0.6 CALM 0 0 0 0 1013.7 - 0.0
01/09:00pm 15.0 16.2 13.7 92 0.7 CALM 0 0 0 0 1013.9 1013.9 0.0
01/08:47pm 14.8 15.8 13.2 90 0.9 NE 0 0 0 0 1013.9 - 0.0
01/08:30pm 15.7 17.0 14.2 91 0.9 CALM 0 0 0 0 1014.0 - 0.0
01/08:00pm 16.8 17.4 15.2 90 0.9 N 6 7 3 4 1014.1 1014.1 0.0
01/07:30pm 17.8 18.5 16.0 89 1.1 NE 7 9 4 5 1013.9 - 0.0
01/07:00pm 18.2 18.6 16.4 89 1.1 NNE 9 13 5 7 1013.9 1013.9 0.0
01/06:30pm 18.4 18.4 16.2 87 1.3 NNE 11 15 6 8 1013.7 - 0.0
01/06:00pm 18.8 18.4 16.2 85 1.5 NNE 13 19 7 10 1013.6 1013.6 0.0
01/05:30pm 18.9 18.6 15.4 80 2.1 NNE 11 19 6 10 1013.3 - 0.0
01/05:00pm 19.5 17.9 15.0 75 2.6 NE 17 20 9 11 1012.9 1012.9 0.0
01/04:30pm 20.0 19.4 15.6 76 2.6 NE 13 19 7 10 1012.8 - 0.0
01/04:00pm 20.0 18.3 14.8 72 3.0 NE 17 24 9 13 1012.7 1012.7 0.0
01/03:30pm 20.9 18.5 14.3 66 3.8 NE 20 28 11 15 1012.9 - 0.0
01/03:00pm 20.6 17.9 14.5 68 3.6 NE 22 30 12 16 1012.9 1012.9 0.0
01/02:30pm 21.3 18.9 14.5 65 4.0 NE 20 24 11 13 1013.2 - 0.0
01/02:00pm 21.8 20.3 15.2 66 3.9 NE 17 22 9 12 1013.5 1013.5 0.0
01/01:30pm 21.7 20.2 16.2 71 3.3 NE 19 26 10 14 1014.0 - 0.0
01/01:00pm 21.1 19.5 15.9 72 3.1 ENE 19 26 10 14 1014.2 1014.2 0.0
01/12:30pm 20.8 19.4 15.6 72 3.1 ENE 17 22 9 12 1014.9 - 0.0
01/12:00pm 21.1 19.1 15.6 71 3.3 ENE 20 24 11 13 1015.5 1015.5 0.0
01/11:30am 21.1 19.2 15.2 69 3.5 ENE 19 24 10 13 1015.9 - 0.0
01/11:00am 21.4 21.0 14.1 63 4.2 N 9 17 5 9 1016.4 1016.4 0.0
01/10:30am 20.6 19.3 13.8 65 3.9 N 13 20 7 11 1016.8 - 0.0
01/10:00am 19.4 18.1 13.8 70 3.2 N 13 20 7 11 1017.3 1017.3 0.0
01/09:30am 17.9 17.8 13.8 77 2.3 NNW 7 13 4 7 1017.9 - 0.0
01/09:00am 16.1 15.6 12.7 80 1.9 WNW 7 11 4 6 1018.1 1018.1 0.0
01/08:30am 14.5 13.9 12.4 87 1.1 NW 7 9 4 5 1018.3 - 0.0
01/08:00am 13.2 12.3 11.4 89 1.0 W 7 9 4 5 1018.3 1018.3 0.0
01/07:30am 12.3 11.4 11.2 93 0.6 WNW 7 9 4 5 1018.1 - 0.0
01/07:00am 11.4 10.0 10.9 97 0.3 W 9 13 5 7 1018.1 1018.1 0.0
01/06:30am 9.4 9.1 8.8 96 0.3 CALM 0 0 0 0 1017.6 - 0.0
01/06:00am 10.1 10.0 9.5 96 0.3 CALM 0 0 0 0 1017.7 1017.7 0.0
01/05:30am 9.9 9.7 9.1 95 0.4 CALM 0 0 0 0 1017.5 - 0.0
01/05:00am 10.5 10.5 9.9 96 0.3 CALM 0 0 0 0 1017.2 1017.2 0.0
01/04:30am 10.5 10.5 9.9 96 0.3 CALM 0 4 0 2 1017.2 - 0.0
01/04:00am 10.6 10.7 10.0 96 0.3 CALM 0 0 0 0 1017.0 1017.0 0.0
01/03:30am 10.5 10.5 9.9 96 0.3 CALM 0 0 0 0 1017.0 - 0.0
01/03:00am 10.5 9.4 9.9 96 0.3 WNW 6 9 3 5 1017.1 1017.1 0.0
01/02:30am 10.9 10.6 10.0 94 0.5 W 2 7 1 4 1017.3 - 0.0
01/02:00am 11.4 10.9 10.6 95 0.4 WNW 4 7 2 4 1017.6 1017.6 0.0
01/01:30am 11.6 10.2 11.0 96 0.3 WNW 9 13 5 7 1017.8 - 0.0
01/01:00am 11.8 11.8 11.2 96 0.3 WNW 2 9 1 5 1018.0 1018.0 0.0
01/12:30am 11.8 12.1 11.0 95 0.4 CALM 0 6 0 3 1018.0 - 0.0
01/12:00am 12.1 12.2 11.5 96 0.3 WNW 2 7 1 4 1018.1 1018.1 0.0
 
Date/Time
EST
Temp
°C
App
Temp
°C
Dew
Point
Rel
Hum
%
Delta-T
°C
Wind Press
QNH
hPa
Press
MSL
hPa
Rain
since 9 am
mm
Dir
 
Spd
km/h
Gust
km/h
Spd
kts
Gust
kts
31/11:30pm 10.9 10.5 9.8 93 0.6 W 2 11 1 6 1018.2 - 0.0
31/11:00pm 11.5 11.7 10.6 94 0.5 CALM 0 0 0 0 1018.2 1018.2 0.0
31/10:57pm 11.6 11.9 10.8 95 0.4 CALM 0 0 0 0 1018.2 - 0.0
31/10:37pm 10.9 10.9 9.7 92 0.6 CALM 0 0 0 0 1018.2 - 0.0
31/10:30pm 11.7 11.9 10.6 93 0.6 CALM 0 0 0 0 1018.2 - 0.0
31/10:00pm 12.4 12.9 11.5 94 0.5 CALM 0 0 0 0 1018.5 1018.5 0.0
31/09:30pm 12.2 12.5 10.9 92 0.7 CALM 0 0 0 0 1018.6 - 0.0
31/09:00pm 13.0 12.8 11.9 93 0.6 W 4 7 2 4 1018.6 1018.6 0.0
31/08:30pm 13.1 12.5 11.8 92 0.7 WNW 6 7 3 4 1018.4 - 0.0
31/08:00pm 13.9 13.7 11.9 88 1.1 WNW 4 7 2 4 1018.3 1018.3 0.0
31/07:30pm 14.7 14.2 12.7 88 1.1 WSW 7 7 4 4 1018.2 - 0.0
31/07:00pm 15.2 14.5 13.2 88 1.1 SW 9 13 5 7 1017.9 1017.9 0.0
31/06:30pm 16.1 15.8 13.4 84 1.5 SW 7 11 4 6 1017.5 - 0.0
31/06:00pm 16.9 15.1 13.4 80 2.0 S 15 20 8 11 1017.2 1017.2 0.0
31/05:30pm 17.4 15.1 13.1 76 2.4 S 17 24 9 13 1017.0 - 0.0
31/05:00pm 18.1 16.3 13.4 74 2.7 S 15 24 8 13 1016.9 1016.9 0.0
31/04:30pm 18.7 15.3 13.8 73 2.8 S 24 33 13 18 1016.5 - 0.0
31/04:00pm 19.1 15.7 13.7 71 3.1 S 24 33 13 18 1016.3 1016.3 0.0
31/03:30pm 19.6 15.6 13.1 66 3.7 S 26 35 14 19 1016.4 - 0.0
31/03:00pm 20.6 18.1 14.0 66 3.8 SSE 20 28 11 15 1016.6 1016.6 0.0
31/02:30pm 20.5 18.4 13.5 64 4.0 S 17 24 9 13 1016.7 - 0.0
31/02:00pm 20.3 17.5 13.3 64 4.0 S 20 30 11 16 1016.7 1016.7 0.0
31/01:30pm 19.9 17.1 12.7 63 4.1 S 19 28 10 15 1016.8 - 0.0
31/01:00pm 20.5 17.4 12.2 59 4.6 SW 20 28 11 15 1016.9 1016.9 0.0
31/12:30pm 20.8 17.9 12.8 60 4.5 SSW 20 28 11 15 1017.3 - 0.0
31/12:00pm 21.1 17.5 13.0 60 4.6 SSW 24 37 13 20 1017.4 1017.4 0.0
31/11:30am 20.7 16.5 12.4 59 4.7 SW 26 32 14 17 1017.8 - 0.0
31/11:00am 20.2 16.5 12.7 62 4.2 SW 24 32 13 17 1018.3 1018.3 0.0
31/10:30am 19.6 15.8 12.4 63 4.0 SW 24 35 13 19 1018.8 - 0.0
31/10:00am 19.1 15.7 12.4 65 3.7 SW 22 32 12 17 1019.1 1019.1 0.0
31/09:30am 18.8 15.1 12.8 68 3.4 SW 24 33 13 18 1019.2 - 0.0
31/09:00am 17.9 14.3 11.9 68 3.3 SW 22 33 12 18 1019.4 1019.4 0.0
31/08:30am 17.6 13.8 12.5 72 2.8 SW 24 32 13 17 1019.5 - 0.0
31/08:00am 17.0 14.2 12.5 75 2.5 WSW 19 26 10 14 1019.4 1019.4 0.0
31/07:30am 15.9 13.3 11.9 77 2.2 WSW 17 28 9 15 1019.2 - 0.0
31/07:00am 15.2 12.5 11.8 80 1.8 WSW 17 20 9 11 1019.1 1019.1 0.0
31/06:30am 14.5 11.7 11.5 82 1.6 WSW 17 22 9 12 1018.7 - 0.0
31/06:00am 14.6 11.5 11.6 82 1.6 W 19 24 10 13 1018.6 1018.6 0.0
31/05:30am 14.6 11.5 11.6 82 1.6 WSW 19 24 10 13 1018.4 - 0.0
31/05:00am 14.7 11.9 11.5 81 1.7 WSW 17 26 9 14 1018.1 1018.1 0.0
31/04:30am 14.9 11.8 11.7 81 1.7 WSW 19 26 10 14 1017.9 - 0.0
31/04:00am 15.0 11.7 11.6 80 1.8 WSW 20 24 11 13 1017.9 1017.9 0.0
31/03:30am 15.4 12.4 11.8 79 1.9 WSW 19 26 10 14 1017.9 - 0.0
31/03:00am 15.4 12.4 11.8 79 1.9 W 19 24 10 13 1017.9 1017.9 0.0
31/02:30am 15.4 11.8 11.8 79 1.9 WSW 22 30 12 16 1017.9 - 0.0
31/02:00am 15.3 12.2 11.7 79 1.9 WSW 19 26 10 14 1018.1 1018.1 0.0
31/01:30am 15.5 11.9 11.7 78 2.1 WSW 22 28 12 15 1018.2 - 0.0
31/01:00am 15.6 12.3 11.6 77 2.2 WSW 20 26 11 14 1018.4 1018.4 0.0
31/12:30am 15.6 12.4 11.8 78 2.1 WSW 20 30 11 16 1018.6 - 0.0
31/12:00am 15.7 12.5 11.9 78 2.1 WSW 20 30 11 16 1018.7 1018.7 0.0
 
Date/Time
EST
Temp
°C
App
Temp
°C
Dew
Point
Rel
Hum
%
Delta-T
°C
Wind Press
QNH
hPa
Press
MSL
hPa
Rain
since 9 am
mm
Dir
 
Spd
km/h
Gust
km/h
Spd
kts
Gust
kts
30/11:30pm 15.4 12.3 11.6 78 2.0 WSW 19 26 10 14 1018.8 - 0.0
30/11:00pm 15.5 12.2 11.7 78 2.0 WSW 20 26 11 14 1018.9 1018.9 0.0
30/10:30pm 15.7 12.6 12.1 79 2.0 WSW 20 32 11 17 1019.0 - 0.0
30/10:00pm 15.8 12.2 12.0 78 2.1 WSW 22 30 12 16 1018.9 1018.9 0.0
30/09:30pm 16.0 13.0 12.0 77 2.2 WSW 19 28 10 15 1019.0 - 0.0
30/09:00pm 16.0 12.8 11.8 76 2.3 WSW 20 30 11 16 1019.0 1019.0 0.0
30/08:30pm 15.8 12.8 11.8 77 2.2 WSW 19 24 10 13 1018.9 - 0.0
30/08:00pm 15.7 12.5 11.9 78 2.1 WSW 20 28 11 15 1018.8 1018.8 0.0
30/07:30pm 15.4 12.4 11.8 79 1.9 WSW 19 30 10 16 1018.7 - 0.0
30/07:00pm 15.6 12.4 12.0 79 2.0 WSW 20 30 11 16 1018.6 1018.6 0.0
30/06:30pm 15.5 12.5 11.9 79 2.0 WSW 19 30 10 16 1018.6 - 0.0
30/06:00pm 15.8 12.8 12.0 78 2.1 WSW 19 28 10 15 1018.5 1018.5 0.0
30/05:30pm 16.3 13.2 12.1 76 2.3 WSW 20 30 11 16 1018.3 - 0.0
30/05:00pm 16.5 13.0 12.1 75 2.4 WSW 22 30 12 16 1018.3 1018.3 0.0
30/04:30pm 17.3 13.0 12.2 72 2.8 SW 26 37 14 20 1018.1 - 0.0
30/04:00pm 17.9 12.9 12.1 69 3.2 SW 30 44 16 24 1017.9 1017.9 0.0
30/03:30pm 18.7 14.5 12.5 67 3.5 SW 26 37 14 20 1017.9 - 0.0
30/03:00pm 18.9 13.6 12.6 67 3.5 WSW 32 43 17 23 1017.8 1017.8 0.0
30/02:30pm 18.7 13.6 12.0 65 3.7 SW 30 44 16 24 1017.9 - 0.0
30/02:00pm 19.4 14.3 13.1 67 3.6 SW 32 46 17 25 1018.0 1018.0 0.0
30/01:54pm 19.4 14.9 12.7 65 3.8 SW 28 46 15 25 1018.1 - 0.0
30/01:30pm 19.3 14.0 13.2 68 3.5 WSW 33 48 18 26 1018.3 - 0.0
30/01:00pm 19.2 14.8 12.9 67 3.5 SW 28 43 15 23 1018.3 1018.3 0.0
30/12:31pm 18.3 13.1 12.7 70 3.1 SW 32 50 17 27 1018.6 - 0.0
30/12:30pm 18.4 13.4 13.3 72 2.9 SW 32 43 17 23 1018.7 - 0.0
30/12:00pm 18.3 12.9 12.7 70 3.1 SW 33 50 18 27 1018.9 1018.9 0.0
30/11:55am 18.4 13.8 12.4 68 3.3 SW 28 48 15 26 1019.0 - 0.0
30/11:30am 18.2 13.3 12.4 69 3.2 WSW 30 41 16 22 1019.1 - 0.0
30/11:00am 17.3 12.4 12.6 74 2.6 WSW 30 50 16 27 1019.5 1019.5 0.0
30/10:51am 17.3 12.3 12.2 72 2.8 WSW 30 50 16 27 1019.5 - 0.0
30/10:30am 17.6 12.6 13.3 76 2.4 WSW 32 44 17 24 1019.7 - 0.0
30/10:13am 16.6 11.9 11.9 74 2.6 WSW 28 46 15 25 1019.9 - 0.0
30/10:00am 17.2 13.7 12.3 73 2.7 WSW 22 35 12 19 1019.9 1019.9 0.0
30/09:30am 16.3 12.7 11.9 75 2.4 WSW 22 35 12 19 1019.8 - 0.0
30/09:00am 15.5 11.0 11.3 76 2.2 WSW 26 43 14 23 1019.8 1019.8 0.0
30/08:30am 15.4 10.9 11.4 77 2.1 WSW 26 43 14 23 1019.8 - 0.0
30/08:00am 15.0 10.4 11.0 77 2.1 WSW 26 37 14 20 1019.7 1019.7 0.0
30/07:30am 14.2 8.7 10.6 79 1.9 WSW 30 39 16 21 1019.6 - 0.0
30/07:00am 14.0 9.1 10.0 77 2.1 WSW 26 37 14 20 1019.4 1019.4 0.0

Other Formats:

Comma delimited format used in spreadsheet applications
http://www.bom.gov.au/fwo/IDN60801/IDN60801.94786.axf

JavaScript Object Notation format (JSON) in row-major order
http://www.bom.gov.au/fwo/IDN60801/IDN60801.94786.json